Time;durP1;ratioP1;P1;durP2;ratioP2;P2;SDS_P1;SDS_P2;PMS_P1;PMS_P2;Temp;Humidity;BMP_temperature;BMP_pressure;BME280_temperature;BME280_humidity;BME280_pressure;Samples;Min_cycle;Max_cycle;Signal;HPM_P1;HPM_P2
2021/07/04 00:02:01;;;;;;;4.30;3.90;;;18.40;99.90;;;;;;5002874;28;20935;-78
2021/07/04 00:04:29;;;;;;;4.80;3.40;;;18.50;99.90;;;;;;5004371;28;20474;-79
2021/07/04 00:06:56;;;;;;;5.17;4.00;;;18.40;99.90;;;;;;4997491;28;20454;-79
2021/07/04 00:09:23;;;;;;;8.82;4.68;;;18.50;99.90;;;;;;5007745;28;20448;-78
2021/07/04 00:11:51;;;;;;;5.50;4.50;;;18.50;99.90;;;;;;5006442;28;20217;-78
2021/07/04 00:14:19;;;;;;;5.63;3.73;;;18.50;99.90;;;;;;5008121;28;20814;-78
2021/07/04 00:16:47;;;;;;;7.43;4.27;;;18.50;99.90;;;;;;5002669;28;20822;-78
2021/07/04 00:19:15;;;;;;;7.10;4.90;;;18.60;99.90;;;;;;5002477;28;20455;-78
2021/07/04 00:21:42;;;;;;;5.10;4.50;;;18.60;99.90;;;;;;4995554;28;20463;-77
2021/07/04 00:24:11;;;;;;;5.13;4.63;;;18.50;99.90;;;;;;4997096;28;21024;-79
2021/07/04 00:26:38;;;;;;;5.57;4.37;;;18.60;99.90;;;;;;4991997;28;20447;-78
2021/07/04 00:29:09;;;;;;;6.83;5.10;;;18.60;99.90;;;;;;4988664;28;20462;-77
2021/07/04 00:31:36;;;;;;;5.77;4.50;;;18.60;99.90;;;;;;5004972;28;20479;-78
2021/07/04 00:34:04;;;;;;;3.77;3.40;;;18.60;99.90;;;;;;5004407;28;20479;-78
2021/07/04 00:36:31;;;;;;;5.00;4.50;;;18.60;99.90;;;;;;4999352;28;20452;-78
2021/07/04 00:38:58;;;;;;;5.10;4.60;;;18.60;99.90;;;;;;5007091;28;20823;-78
2021/07/04 00:41:25;;;;;;;4.83;4.30;;;18.60;99.90;;;;;;5005522;28;20443;-77
2021/07/04 00:43:52;;;;;;;4.20;3.80;;;18.60;99.90;;;;;;5004214;28;20827;-77
2021/07/04 00:46:21;;;;;;;6.33;4.63;;;18.70;99.90;;;;;;5003164;28;20448;-78
2021/07/04 00:48:48;;;;;;;5.67;4.80;;;18.70;99.90;;;;;;5002602;28;20453;-78
2021/07/04 00:51:16;;;;;;;5.93;4.50;;;18.60;99.90;;;;;;5008776;28;20495;-76
2021/07/04 00:53:44;;;;;;;4.33;3.93;;;18.60;99.90;;;;;;4995893;28;20460;-78
2021/07/04 00:56:11;;;;;;;5.10;4.63;;;18.60;99.90;;;;;;5001916;28;20559;-78
2021/07/04 00:58:38;;;;;;;4.97;4.50;;;18.60;99.90;;;;;;4996080;28;20456;-77
2021/07/04 01:01:05;;;;;;;7.37;4.83;;;18.70;99.90;;;;;;4990748;28;20453;-77
2021/07/04 01:03:34;;;;;;;4.80;4.30;;;18.70;99.90;;;;;;4993546;28;20445;-78
2021/07/04 01:06:01;;;;;;;4.73;4.33;;;18.70;99.90;;;;;;4997407;28;20452;-76
2021/07/04 01:08:28;;;;;;;4.50;4.10;;;18.80;99.90;;;;;;5004631;28;20833;-75
2021/07/04 01:10:57;;;;;;;7.37;4.70;;;18.80;99.90;;;;;;5001710;28;20914;-76
2021/07/04 01:13:24;;;;;;;6.83;4.93;;;18.80;99.90;;;;;;4996499;28;20462;-77
2021/07/04 01:15:51;;;;;;;6.20;4.40;;;18.80;99.90;;;;;;4982978;28;20458;-77
2021/07/04 01:18:19;;;;;;;5.50;4.30;;;18.80;99.90;;;;;;5000253;28;20459;-77
2021/07/04 01:20:47;;;;;;;7.00;5.50;;;18.90;99.90;;;;;;4999840;28;20542;-76
2021/07/04 01:23:17;;;;;;;7.30;4.50;;;18.90;99.90;;;;;;5006589;28;20455;-76
2021/07/04 01:25:47;;;;;;;5.40;4.50;;;18.90;99.90;;;;;;4999471;28;20567;-77
2021/07/04 01:28:15;;;;;;;9.17;6.97;;;18.90;99.90;;;;;;5003595;28;20509;-75
2021/07/04 01:30:43;;;;;;;8.60;7.00;;;19.00;99.90;;;;;;5001401;28;20463;-75
2021/07/04 01:33:11;;;;;;;7.07;5.20;;;19.00;99.90;;;;;;4995738;28;20476;-75
2021/07/04 01:35:38;;;;;;;6.53;4.00;;;19.10;99.90;;;;;;5006844;28;20845;-78
2021/07/04 01:38:06;;;;;;;5.73;4.60;;;19.10;99.90;;;;;;4999255;28;20447;-75
2021/07/04 01:40:34;;;;;;;6.07;4.70;;;19.10;99.90;;;;;;5000249;28;20452;-75
2021/07/04 01:43:02;;;;;;;6.33;4.70;;;19.10;99.90;;;;;;5000870;28;20491;-76
2021/07/04 01:45:29;;;;;;;7.63;5.73;;;19.10;99.90;;;;;;5004529;28;20487;-76
2021/07/04 01:47:57;;;;;;;7.83;5.80;;;19.10;99.90;;;;;;4998170;28;20429;-76
2021/07/04 01:50:26;;;;;;;5.97;4.83;;;19.10;99.90;;;;;;4997818;28;20463;-75
2021/07/04 01:52:57;;;;;;;6.93;6.23;;;19.10;99.90;;;;;;5002069;28;20490;-77
2021/07/04 01:55:25;;;;;;;5.90;5.00;;;19.10;99.90;;;;;;4998678;28;20519;-76
2021/07/04 01:57:54;;;;;;;4.80;4.40;;;19.10;99.90;;;;;;5007618;28;20479;-76
2021/07/04 02:00:23;;;;;;;6.50;5.77;;;19.20;99.90;;;;;;5010477;28;20457;-76
2021/07/04 02:02:53;;;;;;;9.83;4.50;;;19.10;99.90;;;;;;5003489;28;20448;-77
2021/07/04 02:05:21;;;;;;;6.00;5.50;;;19.10;99.90;;;;;;4997317;28;20468;-76
2021/07/04 02:07:48;;;;;;;6.60;5.90;;;19.10;99.90;;;;;;5002277;28;20943;-76
2021/07/04 02:10:18;;;;;;;5.23;4.77;;;19.10;99.90;;;;;;5000745;28;20880;-76
2021/07/04 02:12:45;;;;;;;7.50;6.53;;;19.10;99.90;;;;;;5009009;28;20484;-77
2021/07/04 02:15:17;;;;;;;7.50;6.47;;;19.00;99.90;;;;;;5002282;28;20844;-76
2021/07/04 02:17:44;;;;;;;5.30;4.63;;;18.90;99.90;;;;;;5000190;28;20452;-77
2021/07/04 02:20:31;;;;;;;6.23;5.70;;;18.90;99.90;;;;;;5006511;28;20433;-76
2021/07/04 02:22:59;;;;;;;7.23;6.53;;;18.90;99.90;;;;;;5005528;28;20444;-77
2021/07/04 02:25:26;;;;;;;5.90;5.40;;;19.00;99.90;;;;;;4999957;28;20476;-76
2021/07/04 02:27:53;;;;;;;6.37;5.27;;;18.90;99.90;;;;;;5010657;28;20465;-75
2021/07/04 02:30:23;;;;;;;5.87;5.10;;;19.00;99.90;;;;;;4997164;28;20448;-76
2021/07/04 02:32:50;;;;;;;6.13;5.57;;;19.00;99.90;;;;;;4991083;28;20475;-77
2021/07/04 02:35:19;;;;;;;5.73;5.23;;;18.90;99.90;;;;;;5003656;28;20475;-77
2021/07/04 02:37:47;;;;;;;8.20;5.83;;;18.90;99.90;;;;;;5002434;28;20436;-76
2021/07/04 02:40:15;;;;;;;5.53;5.03;;;18.90;99.90;;;;;;5002754;28;20554;-76
2021/07/04 02:42:42;;;;;;;9.07;6.77;;;18.90;99.90;;;;;;4996000;28;20437;-76
2021/07/04 02:45:10;;;;;;;7.30;6.60;;;18.80;99.90;;;;;;4997008;28;20483;-76
2021/07/04 02:47:40;;;;;;;10.20;7.10;;;18.70;99.90;;;;;;5001087;28;20452;-77
2021/07/04 02:50:09;;;;;;;6.73;6.13;;;18.70;99.90;;;;;;4997344;28;20449;-76
2021/07/04 02:52:36;;;;;;;6.10;5.50;;;18.70;99.90;;;;;;4993325;28;20487;-76
2021/07/04 02:55:04;;;;;;;6.77;6.10;;;18.60;99.90;;;;;;4987040;28;20807;-76
2021/07/04 02:57:31;;;;;;;7.37;6.67;;;18.60;99.90;;;;;;4996785;28;20922;-77
2021/07/04 02:59:59;;;;;;;8.47;7.53;;;18.60;99.90;;;;;;5003065;28;20448;-76
2021/07/04 03:02:26;;;;;;;8.27;6.70;;;18.50;99.90;;;;;;4997249;28;20444;-76
2021/07/04 03:04:56;;;;;;;12.17;6.27;;;18.40;99.90;;;;;;4992661;28;20886;-76
2021/07/04 03:07:23;;;;;;;7.37;6.73;;;18.40;99.90;;;;;;4994432;28;20799;-76
2021/07/04 03:09:50;;;;;;;7.87;7.17;;;18.40;99.90;;;;;;5003454;28;20946;-76
2021/07/04 03:12:17;;;;;;;10.20;7.17;;;18.30;99.90;;;;;;5002854;28;20491;-76
2021/07/04 03:14:45;;;;;;;7.83;7.00;;;18.40;99.90;;;;;;5003527;28;20497;-76
2021/07/04 03:17:12;;;;;;;8.77;7.87;;;18.40;99.90;;;;;;5007480;28;20808;-77
2021/07/04 03:19:39;;;;;;;7.83;6.90;;;18.30;99.90;;;;;;5003004;28;20452;-78
2021/07/04 03:22:08;;;;;;;8.00;7.27;;;18.40;99.90;;;;;;4993413;28;20481;-77
2021/07/04 03:24:35;;;;;;;8.10;7.30;;;18.30;99.90;;;;;;5005240;28;20460;-77
2021/07/04 03:27:04;;;;;;;8.40;7.60;;;18.40;99.90;;;;;;4999519;28;20450;-76
2021/07/04 03:29:31;;;;;;;8.33;7.27;;;18.30;99.90;;;;;;4997744;28;20448;-77
2021/07/04 03:31:59;;;;;;;8.83;8.03;;;18.30;99.90;;;;;;4993326;28;20485;-75
2021/07/04 03:34:27;;;;;;;8.17;7.30;;;18.30;99.90;;;;;;5007522;28;20837;-77
2021/07/04 03:36:54;;;;;;;7.87;6.53;;;18.30;99.90;;;;;;5007978;28;20486;-75
2021/07/04 03:39:26;;;;;;;9.40;8.50;;;18.50;99.90;;;;;;5000407;28;20455;-76
2021/07/04 03:41:53;;;;;;;10.13;8.27;;;18.50;99.90;;;;;;5000878;28;20744;-77
2021/07/04 03:44:21;;;;;;;9.30;8.40;;;18.50;99.90;;;;;;5004762;28;20470;-76
2021/07/04 03:46:48;;;;;;;8.37;7.57;;;18.50;99.90;;;;;;5005368;28;20459;-76
2021/07/04 03:49:15;;;;;;;9.13;8.23;;;18.60;99.90;;;;;;5005053;28;20450;-75
2021/07/04 03:51:42;;;;;;;8.23;7.40;;;18.60;99.90;;;;;;4997518;28;21221;-76
2021/07/04 03:54:10;;;;;;;7.50;6.80;;;18.80;99.90;;;;;;5000239;28;20465;-78
2021/07/04 03:56:41;;;;;;;10.13;7.57;;;19.00;99.90;;;;;;4998182;28;20836;-77
2021/07/04 03:59:08;;;;;;;7.17;6.47;;;19.10;99.90;;;;;;5005616;28;20456;-76
2021/07/04 04:01:35;;;;;;;9.23;8.33;;;19.30;99.90;;;;;;5003044;28;20437;-76
2021/07/04 04:04:02;;;;;;;8.57;7.77;;;19.50;99.90;;;;;;4998059;28;20476;-77
2021/07/04 04:06:30;;;;;;;9.83;8.93;;;19.50;99.90;;;;;;4996061;28;20433;-76
2021/07/04 04:08:57;;;;;;;8.70;7.77;;;19.50;99.90;;;;;;5006722;28;20458;-76
2021/07/04 04:11:24;;;;;;;10.00;6.90;;;19.50;99.90;;;;;;4999515;28;20456;-76
2021/07/04 04:13:53;;;;;;;9.77;7.90;;;19.50;99.90;;;;;;5002569;28;20496;-76
2021/07/04 04:16:20;;;;;;;7.70;6.93;;;19.40;99.90;;;;;;4999148;28;20810;-77
2021/07/04 04:18:47;;;;;;;7.40;6.70;;;19.50;99.90;;;;;;5000919;28;20476;-76
2021/07/04 04:21:16;;;;;;;8.57;7.77;;;19.50;99.90;;;;;;5006167;28;20465;-76
2021/07/04 04:23:43;;;;;;;8.20;7.20;;;19.30;99.90;;;;;;5001631;28;20465;-76
2021/07/04 04:26:11;;;;;;;7.87;7.20;;;19.20;99.90;;;;;;5005284;28;20459;-77
2021/07/04 04:28:38;;;;;;;6.63;5.93;;;19.30;99.90;;;;;;5007108;28;20452;-77
2021/07/04 04:31:08;;;;;;;7.40;6.80;;;19.30;99.90;;;;;;5000101;28;20669;-77
2021/07/04 04:33:35;;;;;;;6.73;6.13;;;19.30;99.90;;;;;;4994619;28;20480;-77
2021/07/04 04:36:04;;;;;;;6.80;6.20;;;19.20;99.90;;;;;;5003108;28;20449;-77
2021/07/04 04:38:31;;;;;;;7.30;6.70;;;19.30;99.90;;;;;;4999625;28;20456;-76
2021/07/04 04:41:00;;;;;;;9.70;6.47;;;19.20;99.90;;;;;;4995748;28;20444;-75
2021/07/04 04:43:28;;;;;;;8.07;6.97;;;19.20;99.90;;;;;;4998291;28;20443;-78
2021/07/04 04:45:57;;;;;;;10.60;7.77;;;19.10;99.90;;;;;;4998042;28;20512;-76
2021/07/04 04:48:26;;;;;;;9.33;7.70;;;19.10;99.90;;;;;;4992425;28;20471;-75
2021/07/04 04:50:53;;;;;;;7.77;7.07;;;19.10;99.90;;;;;;4991015;28;20446;-76
2021/07/04 04:53:20;;;;;;;7.07;6.40;;;19.20;99.90;;;;;;4991054;28;20977;-77
2021/07/04 04:55:48;;;;;;;8.53;7.83;;;19.20;99.90;;;;;;4998283;28;22121;-76
2021/07/04 04:58:16;;;;;;;7.80;7.10;;;19.30;99.90;;;;;;4981078;28;20533;-77
2021/07/04 05:00:43;;;;;;;8.93;7.27;;;19.40;99.90;;;;;;5002887;28;21318;-76
2021/07/04 05:03:11;;;;;;;8.03;6.67;;;19.50;99.90;;;;;;4996053;28;20457;-77
2021/07/04 05:05:39;;;;;;;9.07;8.10;;;19.40;99.90;;;;;;4994901;28;20477;-75
2021/07/04 05:08:09;;;;;;;7.10;6.43;;;19.40;99.90;;;;;;4991947;28;20531;-76
2021/07/04 05:10:37;;;;;;;7.63;6.93;;;19.40;99.90;;;;;;5002520;28;20458;-78
2021/07/04 05:13:04;;;;;;;9.47;8.53;;;19.40;99.90;;;;;;5000000;28;20475;-78
2021/07/04 05:15:32;;;;;;;9.30;8.40;;;19.30;99.90;;;;;;4995625;28;20468;-76
2021/07/04 05:17:59;;;;;;;8.23;7.47;;;19.40;99.90;;;;;;5001672;28;20466;-77
2021/07/04 05:20:27;;;;;;;10.03;9.13;;;19.40;99.90;;;;;;5001099;28;20444;-78
2021/07/04 05:22:57;;;;;;;8.43;7.67;;;19.40;99.90;;;;;;5003404;28;20435;-77
2021/07/04 05:25:24;;;;;;;13.17;8.87;;;19.40;99.90;;;;;;4991688;28;20479;-76
2021/07/04 05:27:52;;;;;;;9.77;8.77;;;19.40;99.90;;;;;;5003289;28;20502;-76
2021/07/04 05:30:25;;;;;;;10.40;9.00;;;19.30;99.90;;;;;;4994656;28;20452;-76
2021/07/04 05:32:52;;;;;;;9.73;8.77;;;19.20;99.90;;;;;;5002622;28;20496;-78
2021/07/04 05:35:20;;;;;;;8.93;7.90;;;19.00;99.90;;;;;;5008527;28;20479;-78
2021/07/04 05:37:47;;;;;;;9.63;8.63;;;19.10;99.90;;;;;;4996965;28;20441;-78
2021/07/04 05:40:16;;;;;;;12.10;8.87;;;19.00;99.90;;;;;;5004376;28;20550;-78
2021/07/04 05:43:00;;;;;;;10.10;9.10;;;18.90;99.90;;;;;;5017314;28;20440;-75
2021/07/04 05:45:27;;;;;;;9.50;8.47;;;18.90;99.90;;;;;;4996354;28;20832;-78
2021/07/04 05:47:56;;;;;;;11.40;9.90;;;18.90;99.90;;;;;;4999779;28;20449;-78
2021/07/04 05:50:25;;;;;;;11.80;8.00;;;18.80;99.90;;;;;;4992790;28;20462;-77
2021/07/04 05:52:57;;;;;;;10.97;9.50;;;18.90;99.90;;;;;;4999487;28;21053;-78
2021/07/04 05:55:26;;;;;;;12.63;10.10;;;18.90;99.90;;;;;;4996397;28;20464;-77
2021/07/04 05:57:53;;;;;;;11.50;10.40;;;18.70;99.90;;;;;;4994880;28;20936;-78
2021/07/04 06:00:23;;;;;;;11.77;10.70;;;18.70;99.90;;;;;;4996739;28;20429;-80
2021/07/04 06:02:51;;;;;;;13.20;10.37;;;18.60;99.90;;;;;;4994095;28;20788;-79
2021/07/04 06:05:19;;;;;;;13.60;11.47;;;18.70;99.90;;;;;;5003506;28;20483;-79
2021/07/04 06:07:50;;;;;;;13.63;11.67;;;18.80;99.90;;;;;;4991755;28;20438;-77
2021/07/04 06:10:18;;;;;;;15.03;12.20;;;18.80;99.90;;;;;;4998276;28;20467;-79
2021/07/04 06:12:49;;;;;;;12.30;10.00;;;18.90;99.90;;;;;;5001181;28;20486;-78
2021/07/04 06:15:18;;;;;;;10.53;9.50;;;19.10;99.90;;;;;;5010971;28;20475;-78
2021/07/04 06:17:46;;;;;;;12.60;11.50;;;19.40;99.90;;;;;;5003388;28;20459;-78
2021/07/04 06:20:20;;;;;;;12.53;11.43;;;19.40;99.90;;;;;;5006757;28;20495;-77
2021/07/04 06:22:48;;;;;;;11.80;10.60;;;19.40;99.90;;;;;;4995144;28;20531;-79
2021/07/04 06:25:18;;;;;;;12.30;11.03;;;19.50;99.90;;;;;;4997112;28;20470;-78
2021/07/04 06:27:48;;;;;;;12.00;11.00;;;19.50;99.90;;;;;;5004137;28;20468;-79
2021/07/04 06:30:18;;;;;;;11.33;10.20;;;19.70;99.90;;;;;;4991993;28;20455;-79
2021/07/04 06:32:47;;;;;;;13.80;12.50;;;19.80;99.90;;;;;;4982951;28;20484;-78
2021/07/04 06:35:15;;;;;;;12.20;10.90;;;19.90;99.90;;;;;;5003129;28;20476;-76
2021/07/04 06:37:43;;;;;;;10.33;9.53;;;19.90;99.90;;;;;;4985943;28;20457;-78
2021/07/04 06:40:14;;;;;;;11.87;10.77;;;19.90;99.90;;;;;;5004908;28;20521;-77
2021/07/04 06:42:42;;;;;;;14.17;12.87;;;19.90;99.90;;;;;;5001844;28;20799;-78
2021/07/04 06:45:11;;;;;;;12.27;10.97;;;19.90;99.90;;;;;;4998546;28;20479;-77
2021/07/04 06:47:43;;;;;;;13.37;12.17;;;19.80;99.90;;;;;;5006510;28;20457;-81
2021/07/04 06:50:12;;;;;;;11.53;10.43;;;19.80;99.90;;;;;;5014578;28;20827;-77
2021/07/04 06:52:40;;;;;;;13.87;11.47;;;19.90;99.90;;;;;;5004239;28;20950;-78
2021/07/04 06:55:08;;;;;;;14.27;12.90;;;20.00;99.90;;;;;;5008791;28;21231;-75
2021/07/04 06:57:35;;;;;;;10.90;9.90;;;20.10;99.90;;;;;;5000683;28;20813;-77
2021/07/04 07:00:08;;;;;;;12.83;10.80;;;20.30;99.90;;;;;;5013411;28;20466;-77
2021/07/04 07:02:37;;;;;;;12.00;10.90;;;20.50;99.90;;;;;;5009595;28;20453;-77
2021/07/04 07:05:08;;;;;;;12.23;11.03;;;20.50;99.90;;;;;;5009438;28;20856;-78
2021/07/04 07:07:36;;;;;;;12.23;11.03;;;20.50;99.90;;;;;;5008414;28;20565;-76
2021/07/04 07:10:03;;;;;;;12.57;11.47;;;20.60;99.90;;;;;;4998022;28;20463;-76
2021/07/04 07:12:31;;;;;;;12.27;11.00;;;20.70;99.90;;;;;;4998847;28;20446;-76
2021/07/04 07:14:58;;;;;;;12.07;11.00;;;20.80;99.90;;;;;;5000563;28;20496;-77
2021/07/04 07:17:25;;;;;;;12.97;10.80;;;20.70;99.90;;;;;;5005049;28;20445;-76
2021/07/04 07:19:53;;;;;;;12.17;11.07;;;20.70;99.90;;;;;;5002874;28;20853;-76
2021/07/04 07:22:22;;;;;;;11.70;10.50;;;20.80;99.90;;;;;;5004572;28;20826;-77
2021/07/04 07:24:50;;;;;;;12.13;11.10;;;20.80;99.90;;;;;;4999508;28;20471;-77
2021/07/04 07:27:18;;;;;;;11.93;10.03;;;20.90;99.90;;;;;;5001950;28;20542;-77
2021/07/04 07:29:45;;;;;;;11.73;10.67;;;20.90;99.90;;;;;;5006002;28;20453;-77
2021/07/04 07:32:13;;;;;;;12.80;11.40;;;21.00;99.90;;;;;;5004734;28;20957;-77
2021/07/04 07:34:40;;;;;;;13.23;12.07;;;20.80;99.90;;;;;;4994873;28;21051;-78
2021/07/04 07:37:07;;;;;;;11.10;10.00;;;20.80;99.90;;;;;;5001309;28;20509;-78
2021/07/04 07:39:35;;;;;;;10.93;9.97;;;20.90;99.90;;;;;;4997116;28;20462;-78
2021/07/04 07:42:03;;;;;;;12.73;11.27;;;20.90;99.90;;;;;;5007220;28;20446;-78
2021/07/04 07:44:30;;;;;;;11.93;10.60;;;21.10;99.90;;;;;;4993387;28;20477;-77
2021/07/04 07:46:58;;;;;;;11.53;10.53;;;21.10;99.90;;;;;;4998165;28;20464;-77
2021/07/04 07:49:26;;;;;;;12.90;11.73;;;21.20;99.90;;;;;;4998207;28;20451;-78
2021/07/04 07:51:54;;;;;;;13.43;11.43;;;21.10;99.90;;;;;;5002499;28;20453;-78
2021/07/04 07:54:22;;;;;;;13.03;11.73;;;21.10;99.90;;;;;;5006375;28;20607;-77
2021/07/04 07:56:52;;;;;;;13.17;11.73;;;21.20;99.90;;;;;;5008431;28;20452;-76
2021/07/04 07:59:20;;;;;;;13.10;11.70;;;21.10;99.90;;;;;;5003874;28;20527;-78
2021/07/04 08:01:47;;;;;;;12.97;11.70;;;21.20;99.90;;;;;;5000666;28;20930;-78
2021/07/04 08:04:14;;;;;;;15.70;14.20;;;21.20;99.90;;;;;;5003073;28;20463;-78
2021/07/04 08:06:41;;;;;;;15.20;13.70;;;21.20;99.90;;;;;;4994841;28;20447;-79
2021/07/04 08:09:09;;;;;;;13.53;12.30;;;21.10;99.90;;;;;;5003515;28;20467;-79
2021/07/04 08:11:36;;;;;;;13.83;12.57;;;21.10;99.90;;;;;;5006354;28;20561;-78
2021/07/04 08:14:04;;;;;;;14.17;12.80;;;21.20;99.90;;;;;;5004173;28;20491;-77
2021/07/04 08:16:34;;;;;;;14.10;12.60;;;21.30;99.90;;;;;;4994775;28;20454;-76
2021/07/04 08:19:01;;;;;;;13.37;11.90;;;21.40;99.90;;;;;;5006400;28;20463;-76
2021/07/04 08:21:29;;;;;;;16.47;13.60;;;21.40;99.90;;;;;;5005079;28;20448;-76
2021/07/04 08:23:56;;;;;;;16.30;14.70;;;21.60;99.90;;;;;;5001304;28;20471;-76
2021/07/04 08:26:24;;;;;;;14.80;13.50;;;21.70;99.90;;;;;;4992930;28;20459;-76
2021/07/04 08:28:51;;;;;;;14.63;12.40;;;21.80;99.90;;;;;;5000047;28;20934;-76
2021/07/04 08:31:20;;;;;;;16.10;13.40;;;22.00;99.90;;;;;;5000113;28;20457;-76
2021/07/04 08:33:47;;;;;;;13.57;12.37;;;22.30;99.90;;;;;;4997337;28;20496;-77
2021/07/04 08:36:14;;;;;;;14.70;13.30;;;22.40;99.90;;;;;;5001288;28;20487;-76
2021/07/04 08:38:41;;;;;;;14.50;13.00;;;22.80;99.90;;;;;;5001702;28;20902;-76
2021/07/04 08:41:08;;;;;;;13.90;12.50;;;23.00;99.90;;;;;;5003690;28;20464;-76
2021/07/04 08:43:37;;;;;;;14.90;13.50;;;23.30;99.90;;;;;;5005036;28;20451;-78
2021/07/04 08:46:09;;;;;;;13.27;12.07;;;23.60;99.90;;;;;;5004446;28;20506;-76
2021/07/04 08:48:39;;;;;;;14.93;13.53;;;23.80;99.90;;;;;;5006350;28;20455;-76
2021/07/04 08:51:07;;;;;;;13.90;12.40;;;23.90;99.90;;;;;;5002811;28;20813;-76
2021/07/04 08:53:35;;;;;;;13.83;12.43;;;24.00;99.90;;;;;;5000724;28;20476;-77
2021/07/04 08:56:03;;;;;;;14.53;13.13;;;24.20;99.90;;;;;;4998169;28;20461;-76
2021/07/04 08:58:30;;;;;;;14.60;13.10;;;24.20;99.90;;;;;;4992422;28;20460;-76
2021/07/04 09:01:16;;;;;;;16.90;13.60;;;24.10;99.90;;;;;;5002798;28;20456;-76
2021/07/04 09:03:46;;;;;;;15.60;13.30;;;24.20;99.90;;;;;;4985419;28;20461;-76
2021/07/04 09:06:15;;;;;;;14.10;12.83;;;24.30;99.90;;;;;;5005544;28;20451;-76
2021/07/04 09:08:43;;;;;;;13.70;12.40;;;24.50;99.90;;;;;;4996613;28;20455;-76
2021/07/04 09:11:12;;;;;;;16.10;14.10;;;24.60;99.90;;;;;;4998209;28;20452;-77
2021/07/04 09:13:40;;;;;;;13.97;12.33;;;24.70;99.90;;;;;;4997469;28;21007;-76
2021/07/04 09:16:10;;;;;;;14.77;12.93;;;24.70;99.90;;;;;;4993802;28;20467;-76
2021/07/04 09:18:37;;;;;;;15.33;13.83;;;24.60;99.90;;;;;;5001974;28;20458;-76
2021/07/04 09:21:18;;;;;;;17.63;14.00;;;24.60;99.90;;;;;;4997372;28;20450;-76
2021/07/04 09:23:45;;;;;;;12.23;10.93;;;24.60;99.90;;;;;;4995255;28;20496;-76
2021/07/04 09:26:38;;;;;;;15.10;13.60;;;24.60;99.90;;;;;;4998489;28;20458;-76
2021/07/04 09:29:06;;;;;;;14.40;13.10;;;24.80;99.90;;;;;;4989012;28;20449;-77
2021/07/04 09:31:34;;;;;;;15.77;14.30;;;24.90;99.90;;;;;;4998043;28;20454;-77
2021/07/04 09:34:07;;;;;;;15.57;13.80;;;25.00;99.90;;;;;;4993405;28;20843;-77
2021/07/04 09:36:39;;;;;;;16.27;14.60;;;25.00;99.90;;;;;;5001876;28;20527;-78
2021/07/04 09:39:25;;;;;;;16.37;14.87;;;25.20;99.90;;;;;;4996377;28;20456;-77
2021/07/04 09:42:07;;;;;;;16.63;15.13;;;25.30;99.90;;;;;;5012280;28;20455;-77
2021/07/04 09:44:38;;;;;;;13.87;12.53;;;25.40;99.90;;;;;;4978489;28;20461;-78
2021/07/04 09:47:16;;;;;;;15.30;13.90;;;25.40;99.90;;;;;;4999611;28;20444;-77
2021/07/04 09:49:44;;;;;;;17.33;13.87;;;25.20;99.90;;;;;;4995302;28;20440;-78
2021/07/04 09:52:18;;;;;;;17.03;13.27;;;25.10;99.90;;;;;;4996228;28;20915;-77
2021/07/04 09:54:56;;;;;;;16.17;14.47;;;25.20;99.90;;;;;;4976493;28;20835;-77
2021/07/04 09:57:25;;;;;;;21.23;15.77;;;25.10;99.90;;;;;;4993457;28;20865;-78
2021/07/04 10:00:14;;;;;;;18.30;16.40;;;25.00;99.90;;;;;;5007025;28;20851;-77
2021/07/04 10:02:42;;;;;;;19.27;17.03;;;25.10;99.90;;;;;;4993565;28;20446;-77
2021/07/04 10:05:16;;;;;;;16.93;15.33;;;25.30;99.90;;;;;;4999875;28;20467;-77
2021/07/04 10:07:45;;;;;;;18.97;16.60;;;25.40;99.90;;;;;;5007539;28;20450;-77
2021/07/04 10:10:12;;;;;;;17.20;15.60;;;25.30;99.90;;;;;;4999339;28;20546;-77
2021/07/04 10:12:40;;;;;;;18.73;16.93;;;25.30;99.90;;;;;;4998801;28;20867;-77
2021/07/04 10:15:11;;;;;;;15.90;14.33;;;25.20;99.90;;;;;;4998788;28;20490;-77
2021/07/04 10:17:38;;;;;;;16.73;14.43;;;25.10;99.90;;;;;;4994862;28;20529;-77
2021/07/04 10:20:07;;;;;;;17.67;15.90;;;25.20;99.90;;;;;;4997418;28;20458;-77
2021/07/04 10:22:37;;;;;;;16.10;14.33;;;25.10;99.90;;;;;;4997799;28;20441;-77
2021/07/04 10:25:08;;;;;;;16.27;14.77;;;25.20;99.90;;;;;;5007597;28;20474;-77
2021/07/04 10:27:40;;;;;;;17.40;15.70;;;25.10;99.90;;;;;;5001635;28;20445;-77
2021/07/04 10:30:08;;;;;;;18.03;16.13;;;25.10;99.90;;;;;;5010009;28;20444;-77
2021/07/04 10:32:37;;;;;;;16.40;14.87;;;25.10;99.90;;;;;;5006018;28;20448;-77
2021/07/04 10:35:10;;;;;;;18.50;15.93;;;25.10;99.90;;;;;;5011415;28;20981;-77
2021/07/04 10:37:39;;;;;;;19.43;17.43;;;25.10;99.90;;;;;;5004166;28;20798;-78
2021/07/04 10:40:17;;;;;;;16.80;15.00;;;25.20;99.90;;;;;;5005938;28;20466;-78
2021/07/04 10:42:45;;;;;;;17.27;15.00;;;25.20;99.90;;;;;;4980267;28;20456;-77
2021/07/04 10:45:33;;;;;;;18.50;14.87;;;25.40;99.90;;;;;;5005541;28;20973;-78
2021/07/04 10:48:18;;;;;;;18.03;16.30;;;25.50;99.90;;;;;;5005719;28;20448;-78
2021/07/04 10:51:09;;;;;;;17.00;15.40;;;25.50;99.90;;;;;;4998655;28;20452;-78
2021/07/04 10:53:45;;;;;;;14.93;13.40;;;25.70;99.90;;;;;;4992410;28;20474;-78
2021/07/04 10:56:39;;;;;;;15.50;13.90;;;25.80;99.90;;;;;;5005039;28;20444;-78
2021/07/04 10:59:09;;;;;;;17.20;14.17;;;26.00;99.90;;;;;;5004204;28;20515;-77
2021/07/04 11:01:57;;;;;;;15.47;13.80;;;26.20;99.90;;;;;;5001392;28;20448;-78
2021/07/04 11:05:03;;;;;;;13.20;11.90;;;26.50;99.90;;;;;;4997143;28;20958;-76
2021/07/04 11:08:17;;;;;;;15.67;14.07;;;26.70;99.90;;;;;;5005992;28;20467;-77
2021/07/04 11:11:09;;;;;;;12.73;11.40;;;26.60;99.90;;;;;;5001286;28;20931;-77
2021/07/04 11:13:48;;;;;;;13.87;12.57;;;26.80;99.90;;;;;;5005741;28;20444;-77
2021/07/04 11:16:22;;;;;;;16.90;13.13;;;26.90;99.90;;;;;;5004269;28;20543;-77
2021/07/04 11:18:54;;;;;;;14.70;13.07;;;27.00;99.90;;;;;;4996776;28;20449;-78
2021/07/04 11:21:23;;;;;;;13.00;11.80;;;27.10;99.90;;;;;;4994195;28;20458;-77
2021/07/04 11:24:19;;;;;;;15.50;14.00;;;27.40;99.90;;;;;;4992822;28;20468;-77
2021/07/04 11:27:24;;;;;;;14.83;12.00;;;27.70;99.10;;;;;;4996126;28;20452;-76
2021/07/04 11:30:25;;;;;;;12.20;11.00;;;27.80;99.00;;;;;;5006061;28;20452;-77
2021/07/04 11:33:21;;;;;;;11.53;10.40;;;28.00;98.10;;;;;;4987360;28;20444;-78
2021/07/04 11:35:48;;;;;;;10.63;9.73;;;28.10;97.70;;;;;;4978562;28;20496;-77
2021/07/04 11:38:16;;;;;;;9.83;8.90;;;28.00;97.20;;;;;;5000384;28;20468;-76
2021/07/04 11:40:44;;;;;;;10.57;9.47;;;27.70;96.70;;;;;;5001843;28;20463;-78
2021/07/04 11:43:14;;;;;;;9.10;8.20;;;27.50;97.30;;;;;;5006459;28;20452;-78
2021/07/04 11:45:50;;;;;;;10.50;9.50;;;27.60;96.80;;;;;;5010822;28;20468;-78
2021/07/04 11:48:17;;;;;;;9.30;8.50;;;28.00;96.60;;;;;;5005032;28;20455;-75
2021/07/04 11:50:49;;;;;;;7.53;6.70;;;28.20;96.40;;;;;;5003691;28;20454;-77
2021/07/04 11:53:17;;;;;;;6.57;5.90;;;28.20;94.60;;;;;;5005741;28;20529;-76
2021/07/04 11:55:58;;;;;;;6.23;5.63;;;28.00;93.70;;;;;;5007791;28;20495;-77
2021/07/04 11:58:26;;;;;;;7.60;6.90;;;27.90;93.50;;;;;;4983530;28;20532;-77
2021/07/04 12:00:55;;;;;;;6.53;5.90;;;27.70;94.50;;;;;;5004299;28;20481;-77
2021/07/04 12:03:23;;;;;;;6.67;6.07;;;27.40;95.20;;;;;;5006514;28;20467;-77
2021/07/04 12:05:54;;;;;;;5.37;4.87;;;27.50;95.40;;;;;;4988579;28;20535;-78
2021/07/04 12:08:21;;;;;;;5.30;4.70;;;27.70;94.80;;;;;;4997137;28;20451;-76
2021/07/04 12:10:52;;;;;;;4.27;3.97;;;27.70;94.40;;;;;;4995368;28;20471;-76
2021/07/04 12:13:20;;;;;;;4.80;4.40;;;27.80;93.40;;;;;;5002012;28;20445;-77
2021/07/04 12:15:50;;;;;;;4.87;4.37;;;27.70;93.30;;;;;;5009417;28;20971;-75
2021/07/04 12:18:22;;;;;;;4.63;4.23;;;27.70;93.40;;;;;;5008477;28;20480;-75
2021/07/04 12:20:54;;;;;;;5.27;4.87;;;28.00;93.30;;;;;;5009458;28;20483;-75
2021/07/04 12:23:22;;;;;;;4.63;4.23;;;28.30;93.00;;;;;;4998936;28;20448;-76
2021/07/04 12:25:50;;;;;;;4.83;4.43;;;28.50;92.20;;;;;;4998813;28;20447;-75
2021/07/04 12:28:21;;;;;;;4.17;3.80;;;28.20;91.60;;;;;;5002357;28;20452;-77
2021/07/04 12:30:49;;;;;;;4.60;4.20;;;28.10;91.30;;;;;;4999796;28;20535;-76
2021/07/04 12:33:20;;;;;;;4.00;3.70;;;28.00;92.00;;;;;;5005316;28;20445;-75
2021/07/04 12:35:50;;;;;;;4.60;4.20;;;27.80;92.20;;;;;;4998470;28;20583;-75
2021/07/04 12:38:22;;;;;;;4.60;4.20;;;27.80;92.10;;;;;;4995971;28;20453;-75
2021/07/04 12:40:54;;;;;;;3.60;3.30;;;27.80;92.70;;;;;;5007882;28;20452;-75
2021/07/04 12:43:24;;;;;;;4.63;4.23;;;27.90;92.30;;;;;;4999865;28;20480;-75
2021/07/04 12:45:54;;;;;;;4.03;3.73;;;27.70;92.60;;;;;;5003809;28;20437;-76
2021/07/04 12:48:27;;;;;;;6.17;4.60;;;27.60;92.90;;;;;;5003969;28;20544;-77
2021/07/04 12:51:02;;;;;;;4.77;4.37;;;27.70;92.40;;;;;;4996894;28;20465;-76
2021/07/04 12:53:38;;;;;;;5.37;4.90;;;27.90;92.50;;;;;;4981618;28;20798;-76